createdAt,value
2018-04-19T00:00:45.678Z,99.90
2018-04-19T00:03:16.504Z,99.90
2018-04-19T00:05:47.462Z,99.90
2018-04-19T00:08:20.181Z,99.90
2018-04-19T00:10:51.265Z,99.90
2018-04-19T00:13:22.165Z,99.90
2018-04-19T00:15:54.146Z,99.90
2018-04-19T00:18:24.982Z,99.90
2018-04-19T00:20:55.997Z,99.90
2018-04-19T00:23:27.117Z,99.90
2018-04-19T00:25:58.757Z,99.90
2018-04-19T00:28:29.771Z,99.90
2018-04-19T00:31:00.673Z,99.90
2018-04-19T00:33:31.534Z,99.90
2018-04-19T00:36:02.569Z,99.90
2018-04-19T00:38:33.713Z,99.90
2018-04-19T00:41:04.881Z,99.90
2018-04-19T00:43:35.730Z,99.90
2018-04-19T00:46:06.890Z,99.90
2018-04-19T00:48:37.814Z,99.90
2018-04-19T00:51:09.453Z,99.90
2018-04-19T00:53:40.631Z,99.90
2018-04-19T00:56:12.288Z,99.90
2018-04-19T00:58:43.894Z,99.90
2018-04-19T01:01:15.087Z,99.90
2018-04-19T01:03:46.045Z,99.90
2018-04-19T01:06:17.246Z,99.90
2018-04-19T01:08:48.482Z,99.90
2018-04-19T01:11:19.351Z,99.90
2018-04-19T01:13:50.319Z,99.90
2018-04-19T01:16:21.553Z,99.90
2018-04-19T01:18:53.276Z,99.90
2018-04-19T01:21:25.402Z,99.90
2018-04-19T01:23:56.659Z,99.90
2018-04-19T01:26:28.006Z,99.90
2018-04-19T01:28:58.917Z,99.90
2018-04-19T01:31:43.638Z,99.90
2018-04-19T01:34:15.834Z,99.90
2018-04-19T01:36:46.850Z,99.90
2018-04-19T01:39:17.754Z,99.90
2018-04-19T01:41:48.966Z,99.90
2018-04-19T01:44:20.167Z,99.90
2018-04-19T01:46:51.838Z,99.90
2018-04-19T01:49:23.425Z,99.90
2018-04-19T01:51:54.384Z,99.90
2018-04-19T01:54:25.246Z,99.90
2018-04-19T01:56:56.874Z,99.90
2018-04-19T01:59:27.996Z,99.90
2018-04-19T02:02:18.109Z,99.90
2018-04-19T02:04:48.951Z,99.90
2018-04-19T02:07:20.014Z,99.90
2018-04-19T02:09:51.064Z,99.90
2018-04-19T02:12:22.972Z,99.90
2018-04-19T02:14:54.604Z,99.90
2018-04-19T02:17:25.602Z,99.90
2018-04-19T02:19:56.435Z,99.90
2018-04-19T02:22:28.086Z,99.90
2018-04-19T02:24:58.944Z,99.90
2018-04-19T02:27:29.898Z,99.90
2018-04-19T02:30:01.490Z,99.90
2018-04-19T02:32:32.706Z,99.90
2018-04-19T02:35:04.033Z,99.90
2018-04-19T02:37:35.049Z,99.90
2018-04-19T02:40:06.060Z,99.90
2018-04-19T02:42:37.023Z,99.90
2018-04-19T02:45:08.204Z,99.90
2018-04-19T02:47:39.105Z,99.90
2018-04-19T02:50:09.980Z,99.90
2018-04-19T02:52:41.025Z,99.90
2018-04-19T02:55:11.925Z,99.90
2018-04-19T02:57:44.237Z,99.90
2018-04-19T03:00:15.716Z,99.90
2018-04-19T03:02:47.349Z,99.90
2018-04-19T03:05:18.683Z,99.90
2018-04-19T03:07:50.572Z,99.90
2018-04-19T03:10:21.614Z,99.90
2018-04-19T03:12:53.132Z,99.90
2018-04-19T03:15:23.987Z,99.90
2018-04-19T03:17:54.973Z,99.90
2018-04-19T03:20:27.267Z,99.90
2018-04-19T03:22:58.338Z,99.90
2018-04-19T03:25:29.252Z,99.90
2018-04-19T03:28:00.626Z,99.90
2018-04-19T03:30:32.018Z,99.90
2018-04-19T03:33:03.796Z,99.90
2018-04-19T03:35:35.573Z,99.90
2018-04-19T03:38:06.857Z,99.90
2018-04-19T03:40:37.702Z,99.90
2018-04-19T03:43:08.800Z,99.90
2018-04-19T03:45:39.916Z,99.90
2018-04-19T03:48:10.898Z,99.90
2018-04-19T03:50:41.742Z,99.90
2018-04-19T03:53:13.212Z,99.90
2018-04-19T03:55:45.617Z,99.90
2018-04-19T03:58:17.434Z,99.90
2018-04-19T04:00:49.598Z,99.90
2018-04-19T04:03:20.648Z,99.90
2018-04-19T04:05:51.535Z,99.90
2018-04-19T04:08:23.042Z,99.90
2018-04-19T04:10:54.005Z,99.90
2018-04-19T04:13:25.785Z,99.90
2018-04-19T04:15:57.119Z,99.90
2018-04-19T04:21:11.714Z,99.90
2018-04-19T04:24:01.338Z,99.90
2018-04-19T04:26:32.781Z,99.90
2018-04-19T04:29:03.628Z,99.90
2018-04-19T04:31:35.396Z,99.90
2018-04-19T04:34:06.339Z,99.90
2018-04-19T04:36:37.933Z,99.90
2018-04-19T04:39:09.148Z,99.90
2018-04-19T04:41:40.780Z,99.90
2018-04-19T04:44:13.096Z,99.90
2018-04-19T04:46:44.103Z,99.90
2018-04-19T04:49:16.098Z,99.90
2018-04-19T04:51:47.010Z,99.90
2018-04-19T04:54:17.847Z,99.90
2018-04-19T04:56:48.999Z,99.90
2018-04-19T04:59:19.853Z,99.90
2018-04-19T05:01:50.820Z,99.90
2018-04-19T05:04:22.329Z,99.90
2018-04-19T05:06:53.613Z,99.90
2018-04-19T05:09:24.625Z,99.90
2018-04-19T05:11:56.378Z,99.90
2018-04-19T05:14:27.253Z,99.90
2018-04-19T05:16:58.893Z,99.90
2018-04-19T05:19:30.210Z,99.90
2018-04-19T05:22:01.064Z,99.90
2018-04-19T05:24:31.876Z,99.90
2018-04-19T05:27:03.069Z,99.90
2018-04-19T05:29:33.902Z,99.90
2018-04-19T05:32:04.841Z,99.90
2018-04-19T05:34:36.076Z,99.90
2018-04-19T05:37:07.027Z,99.90
2018-04-19T05:39:37.934Z,99.90
2018-04-19T05:42:08.957Z,99.90
2018-04-19T05:44:40.605Z,99.90
2018-04-19T05:47:12.755Z,99.90
2018-04-19T05:49:44.389Z,99.90
2018-04-19T05:52:15.317Z,99.90
2018-04-19T05:54:49.067Z,99.90
2018-04-19T05:57:20.282Z,99.90
2018-04-19T05:59:52.117Z,99.90
2018-04-19T06:02:23.064Z,99.90
2018-04-19T06:04:54.330Z,99.90
2018-04-19T06:07:32.636Z,99.90
2018-04-19T06:10:06.069Z,99.90
2018-04-19T06:12:37.282Z,99.90
2018-04-19T06:15:08.191Z,99.90
2018-04-19T06:17:39.209Z,99.90
2018-04-19T06:20:10.665Z,99.90
2018-04-19T06:22:42.606Z,99.90
2018-04-19T06:25:13.490Z,99.90
2018-04-19T06:27:45.140Z,99.90
2018-04-19T06:30:16.179Z,99.90
2018-04-19T06:32:47.725Z,99.90
2018-04-19T06:35:18.568Z,99.90
2018-04-19T06:37:49.565Z,99.90
2018-04-19T06:40:21.326Z,99.90
2018-04-19T06:42:53.051Z,99.90
2018-04-19T06:45:24.808Z,99.90
2018-04-19T06:47:55.753Z,99.90
2018-04-19T06:50:27.113Z,99.90
2018-04-19T06:52:58.113Z,99.90
2018-04-19T06:55:30.031Z,99.90
2018-04-19T06:58:01.214Z,99.90
2018-04-19T07:00:32.069Z,99.90
2018-04-19T07:03:05.705Z,99.90
2018-04-19T07:05:38.599Z,99.90
2018-04-19T07:08:13.038Z,99.90
2018-04-19T07:10:44.488Z,99.90
2018-04-19T07:13:15.515Z,99.90
2018-04-19T07:15:46.374Z,99.90
2018-04-19T07:18:17.258Z,99.90
2018-04-19T07:20:48.461Z,99.90
2018-04-19T07:23:20.202Z,99.90
2018-04-19T07:25:51.208Z,99.90
2018-04-19T07:28:22.289Z,99.90
2018-04-19T07:30:53.721Z,99.90
2018-04-19T07:33:25.272Z,99.90
2018-04-19T07:35:56.150Z,99.90
2018-04-19T07:38:31.030Z,99.90
2018-04-19T07:41:02.281Z,99.90
2018-04-19T07:43:33.155Z,99.90
2018-04-19T07:46:06.410Z,99.90
2018-04-19T07:48:37.890Z,99.90
2018-04-19T07:51:10.318Z,99.90
2018-04-19T07:53:42.806Z,99.90
2018-04-19T07:56:13.635Z,99.90
2018-04-19T07:58:45.231Z,99.90
2018-04-19T08:01:16.162Z,99.90
2018-04-19T08:03:48.119Z,99.90
2018-04-19T08:06:19.424Z,99.90
2018-04-19T08:08:50.661Z,99.90
2018-04-19T08:11:22.392Z,99.90
2018-04-19T08:13:53.382Z,99.90
2018-04-19T08:16:24.257Z,99.90
2018-04-19T08:18:59.846Z,99.90
2018-04-19T08:21:32.059Z,99.90
2018-04-19T08:24:04.146Z,99.90
2018-04-19T08:26:35.009Z,99.90
2018-04-19T08:29:06.037Z,99.90
2018-04-19T08:31:36.893Z,99.90
2018-04-19T08:34:07.827Z,99.90
2018-04-19T08:36:39.053Z,99.90
2018-04-19T08:39:10.862Z,97.70
2018-04-19T08:41:41.734Z,97.70
2018-04-19T08:44:13.205Z,97.00
2018-04-19T08:46:44.237Z,98.60
2018-04-19T08:49:15.884Z,96.60
2018-04-19T08:51:48.021Z,97.00
2018-04-19T08:54:18.881Z,97.00
2018-04-19T08:56:50.621Z,93.80
2018-04-19T08:59:21.591Z,93.70
2018-04-19T09:01:53.243Z,93.60
2018-04-19T09:04:24.933Z,92.90
2018-04-19T09:06:55.774Z,92.90
2018-04-19T09:09:27.332Z,91.80
2018-04-19T09:11:58.243Z,91.80
2018-04-19T09:14:29.326Z,90.70
2018-04-19T09:17:00.174Z,90.60
2018-04-19T09:19:31.225Z,90.60
2018-04-19T09:22:02.593Z,90.30
2018-04-19T09:24:34.389Z,90.20
2018-04-19T09:27:05.208Z,90.10
2018-04-19T09:29:36.733Z,90.10
2018-04-19T09:32:07.592Z,89.10
2018-04-19T09:34:39.244Z,86.70
2018-04-19T09:37:10.917Z,86.00
2018-04-19T09:39:42.787Z,84.80
2018-04-19T09:42:13.686Z,84.80
2018-04-19T09:44:45.474Z,83.00
2018-04-19T09:47:18.316Z,83.10
2018-04-19T09:49:49.358Z,80.70
2018-04-19T09:53:39.426Z,81.00
2018-04-19T09:56:10.288Z,75.10
2018-04-19T09:58:41.136Z,75.00
2018-04-19T10:01:12.673Z,78.20
2018-04-19T10:03:46.973Z,79.60
2018-04-19T10:06:17.956Z,75.10
2018-04-19T10:08:48.837Z,72.90
2018-04-19T10:11:19.715Z,73.70
2018-04-19T10:13:51.343Z,68.90
2018-04-19T10:16:22.965Z,71.00
2018-04-19T10:18:54.109Z,70.90
2018-04-19T10:21:25.108Z,66.70
2018-04-19T10:23:56.008Z,64.10
2018-04-19T10:26:26.972Z,64.60
2018-04-19T10:28:57.814Z,61.50
2018-04-19T10:31:29.261Z,61.50
2018-04-19T10:34:00.164Z,61.40
2018-04-19T10:36:31.174Z,62.50
2018-04-19T10:39:02.399Z,61.90
2018-04-19T10:41:33.461Z,63.40
2018-04-19T10:44:04.291Z,60.20
2018-04-19T10:46:35.921Z,59.20
2018-04-19T10:49:07.616Z,58.70
2018-04-19T10:51:38.478Z,58.70
2018-04-19T10:54:09.658Z,57.40
2018-04-19T10:56:41.348Z,56.50
2018-04-19T10:59:12.966Z,55.50
2018-04-19T11:01:43.920Z,55.40
2018-04-19T11:04:15.778Z,54.00
2018-04-19T11:06:48.009Z,55.80
2018-04-19T11:09:19.645Z,52.10
2018-04-19T11:11:50.549Z,52.00
2018-04-19T11:14:22.149Z,50.10
2018-04-19T11:16:53.121Z,50.00
2018-04-19T11:19:24.257Z,52.50
2018-04-19T11:21:56.015Z,50.50
2018-04-19T11:24:26.909Z,50.50
2018-04-19T11:26:59.670Z,48.60
2018-04-19T11:29:30.578Z,48.60
2018-04-19T11:32:01.798Z,50.60
2018-04-19T11:34:32.658Z,50.30
2018-04-19T11:37:04.235Z,50.00
2018-04-19T11:39:35.137Z,49.90
2018-04-19T11:42:06.014Z,48.30
2018-04-19T11:44:36.865Z,46.80
2018-04-19T11:47:07.841Z,48.70
2018-04-19T11:49:39.258Z,48.70
2018-04-19T11:52:10.117Z,48.30
2018-04-19T11:54:41.129Z,47.10
2018-04-19T11:57:12.728Z,47.80
2018-04-19T11:59:43.744Z,47.20
2018-04-19T12:02:14.893Z,46.50
2018-04-19T12:04:46.109Z,46.20
2018-04-19T12:07:17.957Z,41.60
2018-04-19T12:09:50.602Z,41.50
2018-04-19T12:12:31.175Z,41.80
2018-04-19T12:15:02.910Z,41.00
2018-04-19T12:17:34.065Z,40.90
2018-04-19T12:20:06.954Z,40.40
2018-04-19T12:22:38.720Z,41.00
2018-04-19T12:25:09.689Z,41.00
2018-04-19T12:27:41.294Z,39.50
2018-04-19T12:30:12.761Z,40.20
2018-04-19T12:32:43.819Z,38.90
2018-04-19T12:35:15.464Z,38.70
2018-04-19T12:37:46.626Z,38.60
2018-04-19T12:40:18.319Z,38.40
2018-04-19T12:42:49.558Z,38.40
2018-04-19T12:45:20.439Z,36.30
2018-04-19T12:47:51.326Z,36.80
2018-04-19T12:50:22.297Z,36.40
2018-04-19T12:52:53.489Z,36.10
2018-04-19T12:55:25.482Z,34.50
2018-04-19T12:57:56.321Z,34.50
2018-04-19T13:00:27.197Z,34.50
2018-04-19T13:02:58.217Z,34.40
2018-04-19T13:05:29.885Z,32.70
2018-04-19T13:08:01.059Z,32.60
2018-04-19T13:10:32.690Z,31.50
2018-04-19T13:13:04.857Z,31.40
2018-04-19T13:15:36.050Z,31.20
2018-04-19T13:18:06.977Z,31.00
2018-04-19T13:20:37.902Z,30.90
2018-04-19T13:23:09.968Z,30.20
2018-04-19T13:25:41.664Z,29.90
2018-04-19T13:28:12.730Z,29.80
2018-04-19T13:30:44.669Z,30.20
2018-04-19T13:33:16.329Z,29.80
2018-04-19T13:35:47.219Z,30.40
2018-04-19T13:38:18.076Z,31.30
2018-04-19T13:40:49.273Z,31.20
2018-04-19T13:43:20.231Z,31.00
2018-04-19T13:45:51.429Z,30.60
2018-04-19T13:48:22.565Z,30.30
2018-04-19T13:50:54.013Z,29.90
2018-04-19T13:53:28.245Z,30.00
2018-04-19T13:55:59.290Z,29.40
2018-04-19T13:58:30.201Z,29.10
2018-04-19T14:01:02.050Z,28.20
2018-04-19T14:03:33.099Z,28.20
2018-04-19T14:06:04.016Z,28.30
2018-04-19T14:08:39.475Z,27.80
2018-04-19T14:11:10.314Z,27.60
2018-04-19T14:13:43.190Z,28.30
2018-04-19T14:16:25.329Z,28.30
2018-04-19T14:18:57.264Z,27.70
2018-04-19T14:21:28.101Z,28.00
2018-04-19T14:23:59.776Z,27.30
2018-04-19T14:26:30.626Z,27.20
2018-04-19T14:29:01.830Z,27.30
2018-04-19T14:31:32.828Z,26.60
2018-04-19T14:34:03.749Z,26.90
2018-04-19T14:36:34.584Z,27.30
2018-04-19T14:39:06.705Z,27.80
2018-04-19T14:41:39.017Z,27.40
2018-04-19T14:44:09.901Z,27.00
2018-04-19T14:46:41.609Z,27.60
2018-04-19T14:49:12.552Z,27.50
2018-04-19T14:51:44.386Z,26.70
2018-04-19T14:54:16.052Z,26.90
2018-04-19T14:56:46.889Z,26.90
2018-04-19T14:59:18.305Z,26.50
2018-04-19T15:01:49.981Z,26.40
2018-04-19T15:04:21.069Z,26.40
2018-04-19T15:06:52.097Z,26.90
2018-04-19T15:09:23.245Z,26.80
2018-04-19T15:11:54.393Z,26.80
2018-04-19T15:14:25.416Z,26.50
2018-04-19T15:16:56.236Z,26.50
2018-04-19T15:19:27.088Z,26.40
2018-04-19T15:21:57.930Z,26.70
2018-04-19T15:24:28.782Z,26.30
2018-04-19T15:26:59.659Z,26.30
2018-04-19T15:29:31.688Z,26.90
2018-04-19T15:32:02.574Z,26.80
2018-04-19T15:34:33.734Z,26.80
2018-04-19T15:37:04.942Z,26.30
2018-04-19T15:39:36.617Z,25.60
2018-04-19T15:42:07.465Z,25.50
2018-04-19T15:44:38.653Z,25.60
2018-04-19T15:47:09.508Z,26.10
2018-04-19T15:49:40.401Z,26.30
2018-04-19T15:52:11.346Z,26.30
2018-04-19T15:54:42.557Z,26.10
2018-04-19T15:57:13.710Z,25.80
2018-04-19T15:59:44.578Z,25.40
2018-04-19T16:02:15.450Z,26.00
2018-04-19T16:04:46.890Z,26.20
2018-04-19T16:07:17.759Z,26.20
2018-04-19T16:09:48.753Z,26.10
2018-04-19T16:12:19.976Z,25.80
2018-04-19T16:14:50.820Z,25.60
2018-04-19T16:17:21.686Z,25.70
2018-04-19T16:19:52.965Z,26.00
2018-04-19T16:22:24.558Z,26.00
2018-04-19T16:24:55.738Z,26.00
2018-04-19T16:27:27.170Z,26.30
2018-04-19T16:29:58.373Z,26.10
2018-04-19T16:32:29.984Z,26.40
2018-04-19T16:35:01.218Z,26.30
2018-04-19T16:37:32.966Z,26.40
2018-04-19T16:40:05.857Z,26.30
2018-04-19T16:42:36.908Z,26.30
2018-04-19T16:45:07.809Z,26.20
2018-04-19T16:47:38.654Z,27.10
2018-04-19T16:50:09.654Z,26.70
2018-04-19T16:52:41.677Z,26.60
2018-04-19T16:55:13.695Z,26.40
2018-04-19T16:57:45.102Z,26.30
2018-04-19T17:00:16.598Z,26.50
2018-04-19T17:02:47.437Z,26.80
2018-04-19T17:05:18.545Z,26.80
2018-04-19T17:07:50.430Z,27.40
2018-04-19T17:10:21.293Z,27.40
2018-04-19T17:12:52.467Z,27.60
2018-04-19T17:15:23.485Z,27.80
2018-04-19T17:17:54.504Z,28.60
2018-04-19T17:20:26.018Z,29.10
2018-04-19T17:22:56.944Z,29.10
2018-04-19T17:25:27.863Z,29.60
2018-04-19T17:27:58.744Z,30.40
2018-04-19T17:30:30.983Z,31.50
2018-04-19T17:33:02.585Z,31.30
2018-04-19T17:35:33.464Z,31.30
2018-04-19T17:38:04.313Z,32.20
2018-04-19T17:40:35.203Z,32.60
2018-04-19T17:43:07.027Z,32.80
2018-04-19T17:45:38.476Z,32.70
2018-04-19T17:48:09.347Z,32.70
2018-04-19T17:50:40.441Z,32.50
2018-04-19T17:53:11.505Z,33.30
2018-04-19T17:55:42.609Z,34.30
2018-04-19T17:58:13.613Z,34.60
2018-04-19T18:00:45.096Z,35.70
2018-04-19T18:03:17.262Z,37.10
2018-04-19T18:05:50.314Z,37.70
2018-04-19T18:08:21.387Z,37.60
2018-04-19T18:10:52.462Z,38.10
2018-04-19T18:13:27.825Z,39.70
2018-04-19T18:18:50.782Z,41.10
2018-04-19T18:21:22.101Z,42.50
2018-04-19T18:23:53.102Z,43.60
2018-04-19T18:26:24.658Z,44.90
2018-04-19T18:28:55.607Z,46.00
2018-04-19T18:31:26.891Z,46.90
2018-04-19T18:33:58.518Z,48.10
2018-04-19T18:36:29.548Z,48.90
2018-04-19T18:39:00.590Z,49.80
2018-04-19T18:45:12.767Z,51.40
2018-04-19T18:47:44.575Z,53.10
2018-04-19T18:50:15.570Z,53.10
2018-04-19T18:52:46.577Z,54.20
2018-04-19T18:55:18.267Z,55.50
2018-04-19T18:57:49.279Z,56.70
2018-04-19T19:00:20.803Z,58.30
2018-04-19T19:02:51.797Z,60.30
2018-04-19T19:05:22.819Z,63.50
2018-04-19T19:07:53.818Z,66.90
2018-04-19T19:10:25.154Z,71.40
2018-04-19T19:12:56.474Z,76.00
2018-04-19T19:15:35.615Z,80.90
2018-04-19T19:20:19.083Z,85.60
2018-04-19T19:22:50.387Z,90.80
2018-04-19T19:25:22.057Z,94.10
2018-04-19T19:27:53.120Z,95.10
2018-04-19T19:30:24.883Z,98.40
2018-04-19T19:32:56.118Z,98.40
2018-04-19T19:35:27.349Z,99.00
2018-04-19T19:37:58.697Z,99.80
2018-04-19T19:40:30.333Z,99.90
2018-04-19T19:43:01.591Z,99.90
2018-04-19T19:45:33.696Z,99.90
2018-04-19T19:48:04.820Z,99.90
2018-04-19T19:50:35.811Z,99.90
2018-04-19T19:53:07.304Z,99.90
2018-04-19T19:55:38.397Z,99.90
2018-04-19T19:58:09.414Z,99.90
2018-04-19T20:00:40.750Z,99.90
2018-04-19T20:03:11.805Z,99.90
2018-04-19T20:05:43.726Z,99.90
2018-04-19T20:08:15.691Z,99.90
2018-04-19T20:10:46.585Z,99.90
2018-04-19T20:13:17.715Z,99.90
2018-04-19T20:15:48.875Z,99.90
2018-04-19T20:18:19.893Z,99.90
2018-04-19T20:20:51.528Z,99.90
2018-04-19T20:23:22.557Z,99.90
2018-04-19T20:25:54.269Z,99.90
2018-04-19T20:28:25.610Z,99.90
2018-04-19T20:30:56.502Z,99.90
2018-04-19T20:33:28.471Z,99.90
2018-04-19T20:35:59.364Z,99.90
2018-04-19T20:38:30.365Z,99.90
2018-04-19T20:41:01.583Z,99.90
2018-04-19T20:43:33.408Z,99.90
2018-04-19T20:46:04.342Z,99.90
2018-04-19T20:48:36.500Z,99.90
2018-04-19T20:51:07.356Z,99.90
2018-04-19T20:53:38.808Z,99.90
2018-04-19T20:56:10.094Z,99.90
2018-04-19T20:58:41.182Z,99.90
2018-04-19T21:01:11.966Z,99.90
2018-04-19T21:03:44.350Z,99.90
2018-04-19T21:06:16.139Z,99.90
2018-04-19T21:08:47.335Z,99.90
2018-04-19T21:11:18.547Z,99.90
2018-04-19T21:13:49.747Z,99.90
2018-04-19T21:16:20.830Z,99.90
2018-04-19T21:18:51.768Z,99.90
2018-04-19T21:21:22.693Z,99.90
2018-04-19T21:23:54.102Z,99.90
2018-04-19T21:26:25.779Z,99.90
2018-04-19T21:28:56.901Z,99.90
2018-04-19T21:31:28.504Z,99.90
2018-04-19T21:33:59.696Z,99.90
2018-04-19T21:36:31.739Z,99.90
2018-04-19T21:39:02.640Z,99.90
2018-04-19T21:41:33.640Z,99.90
2018-04-19T21:44:05.461Z,99.90
2018-04-19T21:46:36.367Z,99.90
2018-04-19T21:49:07.633Z,99.90
2018-04-19T21:51:38.543Z,99.90
2018-04-19T21:54:09.731Z,99.90
2018-04-19T21:56:40.740Z,99.90
2018-04-19T21:59:11.741Z,99.90
2018-04-19T22:01:43.439Z,99.90
2018-04-19T22:04:14.478Z,99.90
2018-04-19T22:06:45.654Z,99.90
2018-04-19T22:09:17.514Z,99.90
2018-04-19T22:11:48.366Z,99.90
2018-04-19T22:14:19.361Z,99.90
2018-04-19T22:16:50.226Z,99.90
2018-04-19T22:19:21.216Z,99.90
2018-04-19T22:21:52.380Z,99.90
2018-04-19T22:24:23.238Z,99.90
2018-04-19T22:26:54.140Z,99.90
2018-04-19T22:29:25.324Z,99.90
2018-04-19T22:31:56.160Z,99.90
2018-04-19T22:34:27.171Z,99.90
2018-04-19T22:36:58.309Z,99.90
2018-04-19T22:39:29.400Z,99.90
2018-04-19T22:42:00.212Z,99.90
2018-04-19T22:44:31.211Z,99.90
2018-04-19T22:47:02.885Z,99.90
2018-04-19T22:49:34.149Z,99.90
2018-04-19T22:52:05.994Z,99.90
2018-04-19T22:54:36.873Z,99.90
2018-04-19T22:57:09.000Z,99.90
2018-04-19T22:59:39.859Z,99.90
2018-04-19T23:02:10.782Z,99.90
2018-04-19T23:04:42.073Z,99.90
2018-04-19T23:10:33.997Z,99.90
2018-04-19T23:13:05.138Z,99.90
2018-04-19T23:15:47.692Z,99.90
2018-04-19T23:18:18.546Z,99.90
2018-04-19T23:20:49.623Z,99.90
2018-04-19T23:23:21.274Z,99.90
2018-04-19T23:25:52.139Z,99.90
2018-04-19T23:28:23.402Z,99.90
2018-04-19T23:30:54.333Z,99.90
2018-04-19T23:33:25.199Z,99.90
2018-04-19T23:35:56.307Z,99.90
2018-04-19T23:38:27.961Z,99.90
2018-04-19T23:40:59.602Z,99.90
2018-04-19T23:43:31.222Z,99.90
2018-04-19T23:46:02.311Z,99.90
2018-04-19T23:48:33.465Z,99.90
2018-04-19T23:51:04.639Z,99.90
2018-04-19T23:53:35.537Z,99.90
2018-04-19T23:56:07.465Z,99.90
2018-04-19T23:58:38.477Z,99.90
